createdAt,value
2018-01-10T00:00:00.898Z,0
2018-01-10T00:01:22.863Z,0
2018-01-10T00:02:44.998Z,0
2018-01-10T00:04:06.868Z,0
2018-01-10T00:05:28.814Z,0
2018-01-10T00:06:51.013Z,0
2018-01-10T00:08:12.932Z,0
2018-01-10T00:09:34.791Z,0
2018-01-10T00:10:56.738Z,0
2018-01-10T00:12:18.625Z,0
2018-01-10T00:13:41.103Z,0
2018-01-10T00:15:02.704Z,0
2018-01-10T00:16:24.294Z,0
2018-01-10T00:17:46.166Z,0
2018-01-10T00:19:08.020Z,0
2018-01-10T00:20:30.112Z,0
2018-01-10T00:21:51.958Z,0
2018-01-10T00:23:13.612Z,0
2018-01-10T00:24:35.633Z,0
2018-01-10T00:25:57.497Z,0
2018-01-10T00:27:19.509Z,0
2018-01-10T00:28:41.433Z,0
2018-01-10T00:30:03.379Z,0
2018-01-10T00:31:25.504Z,0
2018-01-10T00:32:47.642Z,0
2018-01-10T00:34:09.242Z,0
2018-01-10T00:35:31.365Z,0
2018-01-10T00:36:53.310Z,0
2018-01-10T00:38:15.178Z,0
2018-01-10T00:39:37.121Z,0
2018-01-10T00:40:58.973Z,0
2018-01-10T00:42:21.120Z,0
2018-01-10T00:43:42.998Z,0
2018-01-10T00:45:05.161Z,0
2018-01-10T00:46:27.023Z,0
2018-01-10T00:47:49.005Z,0
2018-01-10T00:49:11.005Z,0
2018-01-10T00:50:32.637Z,0
2018-01-10T00:51:54.269Z,0
2018-01-10T00:53:15.872Z,0
2018-01-10T00:54:37.450Z,0
2018-01-10T00:55:59.686Z,0
2018-01-10T00:57:21.660Z,0
2018-01-10T00:58:43.328Z,0
2018-01-10T01:00:05.183Z,0
2018-01-10T01:01:27.137Z,0
2018-01-10T01:02:49.393Z,0
2018-01-10T01:04:11.424Z,0
2018-01-10T01:05:33.738Z,0
2018-01-10T01:06:55.677Z,0
2018-01-10T01:08:17.008Z,0
2018-01-10T01:09:38.655Z,0
2018-01-10T01:11:00.086Z,0
2018-01-10T01:12:22.009Z,0
2018-01-10T01:13:43.981Z,0
2018-01-10T01:15:05.577Z,0
2018-01-10T01:16:27.203Z,0
2018-01-10T01:17:48.820Z,0
2018-01-10T01:19:10.994Z,0
2018-01-10T01:20:33.144Z,0
2018-01-10T01:21:55.005Z,0
2018-01-10T01:23:16.633Z,0
2018-01-10T01:24:38.780Z,0
2018-01-10T01:26:00.377Z,0
2018-01-10T01:27:22.490Z,0
2018-01-10T01:28:44.352Z,0
2018-01-10T01:30:06.533Z,0
2018-01-10T01:31:27.967Z,0
2018-01-10T01:32:49.817Z,0
2018-01-10T01:34:11.269Z,0
2018-01-10T01:35:33.144Z,0
2018-01-10T01:36:55.046Z,0
2018-01-10T01:38:17.254Z,0
2018-01-10T01:39:39.112Z,0
2018-01-10T01:41:00.989Z,0
2018-01-10T01:42:22.590Z,0
2018-01-10T01:43:44.213Z,0
2018-01-10T01:45:05.823Z,0
2018-01-10T01:46:28.040Z,0
2018-01-10T01:47:49.378Z,0
2018-01-10T01:49:11.004Z,0
2018-01-10T01:50:32.599Z,0
2018-01-10T01:51:54.525Z,0
2018-01-10T01:53:16.425Z,0
2018-01-10T01:54:38.033Z,0
2018-01-10T01:55:59.094Z,0
2018-01-10T01:57:21.140Z,0
2018-01-10T01:58:42.992Z,0
2018-01-10T02:00:04.855Z,0
2018-01-10T02:01:26.741Z,0
2018-01-10T02:02:48.900Z,0
2018-01-10T02:04:10.293Z,0
2018-01-10T02:05:32.141Z,0
2018-01-10T02:06:53.742Z,0
2018-01-10T02:08:15.335Z,0
2018-01-10T02:09:36.926Z,0
2018-01-10T02:10:58.508Z,0
2018-01-10T02:12:19.962Z,0
2018-01-10T02:13:41.989Z,0
2018-01-10T02:15:04.224Z,0
2018-01-10T02:16:25.562Z,0
2018-01-10T02:17:47.160Z,0
2018-01-10T02:19:09.687Z,0
2018-01-10T02:20:31.402Z,0
2018-01-10T02:21:53.012Z,0
2018-01-10T02:23:14.874Z,0
2018-01-10T02:24:36.985Z,0
2018-01-10T02:25:58.106Z,0
2018-01-10T02:27:19.456Z,0
2018-01-10T02:28:41.351Z,0
2018-01-10T02:30:03.174Z,0
2018-01-10T02:31:25.480Z,0
2018-01-10T02:32:47.118Z,0
2018-01-10T02:34:08.966Z,0
2018-01-10T02:35:30.713Z,0
2018-01-10T02:36:52.320Z,0
2018-01-10T02:38:14.425Z,0
2018-01-10T02:39:36.013Z,0
2018-01-10T02:40:57.551Z,0
2018-01-10T02:42:19.691Z,0
2018-01-10T02:43:41.434Z,0
2018-01-10T02:45:02.545Z,0
2018-01-10T02:46:24.446Z,0
2018-01-10T02:47:46.550Z,0
2018-01-10T02:49:08.690Z,0
2018-01-10T02:50:30.340Z,0
2018-01-10T02:51:52.034Z,0
2018-01-10T02:53:13.994Z,0
2018-01-10T02:54:35.603Z,0
2018-01-10T02:55:57.735Z,0
2018-01-10T02:57:19.301Z,0
2018-01-10T02:58:40.720Z,0
2018-01-10T03:00:02.577Z,0
2018-01-10T03:01:24.257Z,0
2018-01-10T03:02:45.838Z,0
2018-01-10T03:04:07.453Z,0
2018-01-10T03:05:28.534Z,0
2018-01-10T03:06:50.410Z,0
2018-01-10T03:08:12.051Z,0
2018-01-10T03:09:33.967Z,0
2018-01-10T03:10:56.318Z,0
2018-01-10T03:12:17.642Z,0
2018-01-10T03:13:40.015Z,0
2018-01-10T03:15:02.111Z,0
2018-01-10T03:16:23.730Z,0
2018-01-10T03:17:45.514Z,0
2018-01-10T03:19:07.429Z,0
2018-01-10T03:20:29.046Z,0
2018-01-10T03:21:50.894Z,0
2018-01-10T03:23:12.754Z,0
2018-01-10T03:24:34.360Z,0
2018-01-10T03:25:56.355Z,0
2018-01-10T03:27:18.054Z,0
2018-01-10T03:28:40.254Z,0
2018-01-10T03:30:02.743Z,0
2018-01-10T03:31:24.342Z,0
2018-01-10T03:32:46.084Z,0
2018-01-10T03:34:07.433Z,0
2018-01-10T03:35:29.546Z,0
2018-01-10T03:36:51.767Z,0
2018-01-10T03:38:13.409Z,0
2018-01-10T03:39:35.653Z,0
2018-01-10T03:40:57.797Z,0
2018-01-10T03:42:19.663Z,0
2018-01-10T03:43:41.282Z,0
2018-01-10T03:45:02.661Z,0
2018-01-10T03:46:24.794Z,0
2018-01-10T03:47:46.395Z,0
2018-01-10T03:49:08.244Z,0
2018-01-10T03:50:29.838Z,0
2018-01-10T03:51:51.850Z,0
2018-01-10T03:53:13.564Z,0
2018-01-10T03:54:35.698Z,0
2018-01-10T03:55:57.542Z,0
2018-01-10T03:57:19.150Z,0
2018-01-10T03:58:40.758Z,0
2018-01-10T04:00:02.378Z,0
2018-01-10T04:01:24.255Z,0
2018-01-10T04:02:45.852Z,0
2018-01-10T04:04:07.556Z,0
2018-01-10T04:05:29.158Z,0
2018-01-10T04:06:51.037Z,0
2018-01-10T04:08:12.874Z,0
2018-01-10T04:09:34.244Z,0
2018-01-10T04:10:55.881Z,0
2018-01-10T04:12:17.484Z,0
2018-01-10T04:13:39.342Z,0
2018-01-10T04:15:01.218Z,0
2018-01-10T04:16:23.363Z,0
2018-01-10T04:17:45.490Z,0
2018-01-10T04:19:07.330Z,0
2018-01-10T04:20:28.927Z,0
2018-01-10T04:21:50.557Z,0
2018-01-10T04:23:12.392Z,0
2018-01-10T04:24:34.035Z,0
2018-01-10T04:25:56.147Z,0
2018-01-10T04:27:17.979Z,0
2018-01-10T04:28:40.160Z,0
2018-01-10T04:30:01.861Z,0
2018-01-10T04:31:23.462Z,0
2018-01-10T04:32:45.394Z,0
2018-01-10T04:34:07.267Z,0
2018-01-10T04:35:29.139Z,0
2018-01-10T04:36:50.826Z,0
2018-01-10T04:38:12.419Z,0
2018-01-10T04:39:34.334Z,0
2018-01-10T04:40:56.045Z,0
2018-01-10T04:42:17.132Z,0
2018-01-10T04:43:38.746Z,0
2018-01-10T04:45:00.358Z,0
2018-01-10T04:46:22.049Z,0
2018-01-10T04:47:43.914Z,0
2018-01-10T04:49:06.116Z,0
2018-01-10T04:50:28.248Z,0
2018-01-10T04:51:50.684Z,0
2018-01-10T04:53:12.524Z,0
2018-01-10T04:54:33.881Z,0
2018-01-10T04:55:55.940Z,0
2018-01-10T04:57:17.789Z,0
2018-01-10T04:58:39.647Z,0
2018-01-10T05:00:01.495Z,0
2018-01-10T05:01:23.434Z,0
2018-01-10T05:02:45.405Z,0
2018-01-10T05:04:07.016Z,0
2018-01-10T05:05:29.129Z,0
2018-01-10T05:06:50.459Z,0
2018-01-10T05:08:12.052Z,0
2018-01-10T05:09:33.881Z,0
2018-01-10T05:10:55.492Z,0
2018-01-10T05:12:17.267Z,0
2018-01-10T05:13:39.163Z,0
2018-01-10T05:15:01.254Z,0
2018-01-10T05:16:22.948Z,0
2018-01-10T05:17:44.846Z,0
2018-01-10T05:19:06.952Z,0
2018-01-10T05:20:28.915Z,0
2018-01-10T05:21:50.816Z,0
2018-01-10T05:23:12.668Z,0
2018-01-10T05:24:34.250Z,0
2018-01-10T05:25:56.103Z,0
2018-01-10T05:27:17.721Z,0
2018-01-10T05:28:39.309Z,0
2018-01-10T05:30:01.196Z,0
2018-01-10T05:31:23.150Z,0
2018-01-10T05:32:44.757Z,0
2018-01-10T05:34:06.946Z,0
2018-01-10T05:35:28.299Z,0
2018-01-10T05:36:50.040Z,0
2018-01-10T05:38:11.646Z,0
2018-01-10T05:39:33.805Z,0
2018-01-10T05:40:55.927Z,0
2018-01-10T05:42:17.597Z,0
2018-01-10T05:43:39.758Z,0
2018-01-10T05:45:01.589Z,0
2018-01-10T05:46:23.444Z,0
2018-01-10T05:47:44.901Z,0
2018-01-10T05:49:06.248Z,0
2018-01-10T05:50:28.627Z,0
2018-01-10T05:51:50.465Z,0
2018-01-10T05:53:12.312Z,0
2018-01-10T05:54:34.457Z,0
2018-01-10T05:55:56.588Z,0
2018-01-10T05:57:18.711Z,0
2018-01-10T05:58:40.580Z,0
2018-01-10T06:00:02.835Z,0
2018-01-10T06:01:24.994Z,0
2018-01-10T06:02:46.873Z,0
2018-01-10T06:04:09.173Z,0
2018-01-10T06:05:30.935Z,0
2018-01-10T06:06:53.147Z,0
2018-01-10T06:08:15.416Z,0
2018-01-10T06:09:37.546Z,0
2018-01-10T06:10:58.902Z,0
2018-01-10T06:12:21.022Z,0
2018-01-10T06:13:42.639Z,0
2018-01-10T06:15:04.668Z,0
2018-01-10T06:16:26.869Z,0
2018-01-10T06:17:49.008Z,0
2018-01-10T06:19:10.603Z,0
2018-01-10T06:20:32.851Z,0
2018-01-10T06:21:54.481Z,0
2018-01-10T06:23:16.064Z,0
2018-01-10T06:24:37.821Z,0
2018-01-10T06:25:59.422Z,0
2018-01-10T06:27:21.026Z,0
2018-01-10T06:28:42.683Z,0
2018-01-10T06:30:04.609Z,0
2018-01-10T06:31:26.304Z,0
2018-01-10T06:32:48.212Z,0
2018-01-10T06:34:10.324Z,0
2018-01-10T06:35:32.180Z,0
2018-01-10T06:36:53.851Z,0
2018-01-10T06:38:15.727Z,0
2018-01-10T06:39:37.092Z,0
2018-01-10T06:40:59.221Z,0
2018-01-10T06:42:21.343Z,0
2018-01-10T06:43:43.510Z,0
2018-01-10T06:45:05.632Z,0
2018-01-10T06:46:27.239Z,0
2018-01-10T06:47:49.207Z,0
2018-01-10T06:49:11.133Z,0
2018-01-10T06:50:32.745Z,0
2018-01-10T06:51:54.735Z,0
2018-01-10T06:53:16.342Z,0
2018-01-10T06:54:38.434Z,0
2018-01-10T06:55:59.825Z,0
2018-01-10T06:57:21.794Z,0
2018-01-10T06:58:43.394Z,0
2018-01-10T07:00:05.666Z,0
2018-01-10T07:01:27.584Z,0
2018-01-10T07:02:49.302Z,0
2018-01-10T07:04:10.673Z,0
2018-01-10T07:05:32.537Z,0
2018-01-10T07:06:54.422Z,0
2018-01-10T07:08:15.766Z,0
2018-01-10T07:09:37.645Z,0
2018-01-10T07:10:59.040Z,0
2018-01-10T07:12:20.914Z,0
2018-01-10T07:13:43.175Z,0
2018-01-10T07:15:04.763Z,0
2018-01-10T07:16:26.425Z,0
2018-01-10T07:17:47.770Z,0
2018-01-10T07:19:09.394Z,0
2018-01-10T07:20:31.539Z,0
2018-01-10T07:21:53.464Z,0
2018-01-10T07:23:15.177Z,0
2018-01-10T07:24:37.067Z,0
2018-01-10T07:25:58.663Z,0
2018-01-10T07:27:20.633Z,0
2018-01-10T07:28:42.492Z,0
2018-01-10T07:30:04.104Z,0
2018-01-10T07:31:25.786Z,0
2018-01-10T07:32:47.741Z,0
2018-01-10T07:34:09.424Z,5
2018-01-10T07:35:31.263Z,5
2018-01-10T07:36:52.605Z,5
2018-01-10T07:38:14.522Z,5
2018-01-10T07:39:36.455Z,5
2018-01-10T07:40:58.104Z,5
2018-01-10T07:42:19.973Z,5
2018-01-10T07:43:41.632Z,5
2018-01-10T07:45:03.779Z,10
2018-01-10T07:46:25.644Z,10
2018-01-10T07:47:47.508Z,10
2018-01-10T07:49:09.131Z,10
2018-01-10T07:50:31.340Z,10
2018-01-10T07:51:52.956Z,10
2018-01-10T07:53:14.823Z,10
2018-01-10T07:54:37.052Z,10
2018-01-10T07:55:59.149Z,10
2018-01-10T07:57:21.280Z,15
2018-01-10T07:58:43.144Z,15
2018-01-10T08:00:04.505Z,15
2018-01-10T08:01:26.361Z,15
2018-01-10T08:02:47.935Z,15
2018-01-10T08:04:09.532Z,15
2018-01-10T08:05:31.663Z,15
2018-01-10T08:06:53.513Z,20
2018-01-10T08:08:15.369Z,20
2018-01-10T08:09:36.996Z,20
2018-01-10T08:10:58.849Z,20
2018-01-10T08:12:20.184Z,25
2018-01-10T08:13:42.106Z,25
2018-01-10T08:15:04.294Z,30
2018-01-10T08:16:26.163Z,30
2018-01-10T08:17:48.462Z,30
2018-01-10T08:19:10.122Z,35
2018-01-10T08:20:32.052Z,35
2018-01-10T08:21:53.723Z,35
2018-01-10T08:23:15.345Z,35
2018-01-10T08:24:36.698Z,35
2018-01-10T08:25:58.303Z,35
2018-01-10T08:27:19.774Z,35
2018-01-10T08:28:41.709Z,35
2018-01-10T08:30:03.310Z,35
2018-01-10T08:31:25.538Z,35
2018-01-10T08:32:46.886Z,35
2018-01-10T08:34:08.764Z,35
2018-01-10T08:35:30.948Z,35
2018-01-10T08:36:52.300Z,35
2018-01-10T08:38:14.145Z,35
2018-01-10T08:39:35.502Z,35
2018-01-10T08:40:57.371Z,35
2018-01-10T08:42:19.267Z,35
2018-01-10T08:43:41.009Z,40
2018-01-10T08:45:03.227Z,40
2018-01-10T08:46:24.886Z,40
2018-01-10T08:47:46.793Z,40
2018-01-10T08:49:08.637Z,40
2018-01-10T08:50:30.612Z,45
2018-01-10T08:51:52.732Z,45
2018-01-10T08:53:14.444Z,50
2018-01-10T08:54:36.352Z,50
2018-01-10T08:55:58.083Z,50
2018-01-10T08:57:19.672Z,55
2018-01-10T08:58:41.794Z,50
2018-01-10T09:00:03.915Z,55
2018-01-10T09:01:25.806Z,55
2018-01-10T09:02:47.921Z,55
2018-01-10T09:04:09.270Z,55
2018-01-10T09:05:30.856Z,55
2018-01-10T09:06:52.626Z,55
2018-01-10T09:08:14.487Z,55
2018-01-10T09:09:36.667Z,60
2018-01-10T09:10:58.422Z,55
2018-01-10T09:12:20.286Z,60
2018-01-10T09:13:42.167Z,60
2018-01-10T09:15:04.278Z,60
2018-01-10T09:16:26.164Z,60
2018-01-10T09:17:47.791Z,60
2018-01-10T09:19:09.383Z,60
2018-01-10T09:20:31.026Z,60
2018-01-10T09:21:52.362Z,55
2018-01-10T09:23:14.244Z,55
2018-01-10T09:24:36.146Z,55
2018-01-10T09:25:57.797Z,55
2018-01-10T09:27:19.670Z,60
2018-01-10T09:28:41.556Z,60
2018-01-10T09:30:03.837Z,60
2018-01-10T09:31:25.997Z,60
2018-01-10T09:32:47.875Z,60
2018-01-10T09:34:09.793Z,65
2018-01-10T09:35:31.402Z,65
2018-01-10T09:36:52.755Z,65
2018-01-10T09:38:14.892Z,70
2018-01-10T09:39:36.904Z,70
2018-01-10T09:40:58.837Z,65
2018-01-10T09:42:20.474Z,65
2018-01-10T09:43:42.078Z,65
2018-01-10T09:45:03.941Z,65
2018-01-10T09:46:25.542Z,65
2018-01-10T09:47:47.127Z,70
2018-01-10T09:49:08.989Z,75
2018-01-10T09:50:30.594Z,75
2018-01-10T09:51:51.945Z,75
2018-01-10T09:53:14.254Z,75
2018-01-10T09:54:35.864Z,70
2018-01-10T09:55:57.722Z,70
2018-01-10T09:57:19.849Z,70
2018-01-10T09:58:41.454Z,70
2018-01-10T10:00:03.161Z,75
2018-01-10T10:01:25.504Z,75
2018-01-10T10:02:47.615Z,75
2018-01-10T10:04:09.504Z,75
2018-01-10T10:05:30.827Z,80
2018-01-10T10:06:52.726Z,80
2018-01-10T10:08:14.341Z,80
2018-01-10T10:09:35.954Z,80
2018-01-10T10:10:57.883Z,85
2018-01-10T10:12:19.476Z,85
2018-01-10T10:13:41.086Z,85
2018-01-10T10:15:02.423Z,85
2018-01-10T10:16:24.446Z,85
2018-01-10T10:17:46.046Z,85
2018-01-10T10:19:07.737Z,85
2018-01-10T10:20:29.654Z,85
2018-01-10T10:21:51.230Z,90
2018-01-10T10:23:13.176Z,90
2018-01-10T10:24:35.074Z,90
2018-01-10T10:25:56.653Z,90
2018-01-10T10:27:18.593Z,95
2018-01-10T10:28:40.265Z,95
2018-01-10T10:30:02.381Z,100
2018-01-10T10:31:23.964Z,100
2018-01-10T10:32:45.405Z,105
2018-01-10T10:34:07.543Z,105
2018-01-10T10:35:29.734Z,105
2018-01-10T10:36:51.604Z,100
2018-01-10T10:38:13.284Z,100
2018-01-10T10:39:35.158Z,100
2018-01-10T10:40:56.924Z,95
2018-01-10T10:42:18.804Z,95
2018-01-10T10:43:41.037Z,95
2018-01-10T10:45:02.767Z,100
2018-01-10T10:46:24.636Z,105
2018-01-10T10:47:46.265Z,110
2018-01-10T10:49:08.161Z,115
2018-01-10T10:50:29.749Z,120
2018-01-10T10:51:52.004Z,125
2018-01-10T10:53:13.929Z,125
2018-01-10T10:54:35.288Z,125
2018-01-10T10:55:56.901Z,125
2018-01-10T10:57:18.813Z,130
2018-01-10T10:58:40.468Z,135
2018-01-10T11:00:02.092Z,135
2018-01-10T11:01:23.955Z,130
2018-01-10T11:02:45.840Z,125
2018-01-10T11:04:07.456Z,120
2018-01-10T11:05:29.425Z,115
2018-01-10T11:06:51.297Z,120
2018-01-10T11:08:13.158Z,120
2018-01-10T11:09:35.020Z,115
2018-01-10T11:10:56.624Z,115
2018-01-10T11:12:17.971Z,125
2018-01-10T11:13:39.361Z,135
2018-01-10T11:15:01.224Z,140
2018-01-10T11:16:22.854Z,145
2018-01-10T11:17:45.153Z,155
2018-01-10T11:19:07.014Z,160
2018-01-10T11:20:28.712Z,170
2018-01-10T11:21:50.078Z,165
2018-01-10T11:23:12.223Z,165
2018-01-10T11:24:34.107Z,165
2018-01-10T11:25:56.243Z,165
2018-01-10T11:27:18.428Z,165
2018-01-10T11:28:40.319Z,165
2018-01-10T11:30:02.198Z,160
2018-01-10T11:31:24.098Z,160
2018-01-10T11:32:45.698Z,160
2018-01-10T11:34:07.590Z,155
2018-01-10T11:35:29.175Z,150
2018-01-10T11:36:50.796Z,150
2018-01-10T11:38:12.720Z,140
2018-01-10T11:39:34.699Z,140
2018-01-10T11:40:56.054Z,135
2018-01-10T11:42:18.201Z,135
2018-01-10T11:43:40.093Z,135
2018-01-10T11:45:02.211Z,140
2018-01-10T11:46:24.151Z,140
2018-01-10T11:47:46.315Z,140
2018-01-10T11:49:08.434Z,140
2018-01-10T11:50:30.067Z,145
2018-01-10T11:51:52.244Z,145
2018-01-10T11:53:13.893Z,140
2018-01-10T11:54:35.542Z,140
2018-01-10T11:55:57.403Z,140
2018-01-10T11:57:19.672Z,140
2018-01-10T11:58:41.591Z,140
2018-01-10T12:00:03.453Z,140
2018-01-10T12:01:25.044Z,145
2018-01-10T12:02:46.912Z,140
2018-01-10T12:04:08.256Z,140
2018-01-10T12:05:30.136Z,140
2018-01-10T12:06:52.368Z,140
2018-01-10T12:08:13.712Z,140
2018-01-10T12:09:35.155Z,140
2018-01-10T12:10:57.264Z,135
2018-01-10T12:12:18.854Z,135
2018-01-10T12:13:41.106Z,135
2018-01-10T12:15:03.044Z,135
2018-01-10T12:16:24.713Z,130
2018-01-10T12:17:46.642Z,130
2018-01-10T12:19:08.252Z,130
2018-01-10T12:20:29.850Z,125
2018-01-10T12:21:51.706Z,125
2018-01-10T12:23:13.660Z,125
2018-01-10T12:24:35.542Z,125
2018-01-10T12:25:57.140Z,125
2018-01-10T12:27:18.752Z,130
2018-01-10T12:28:40.382Z,125
2018-01-10T12:30:02.561Z,130
2018-01-10T12:31:24.449Z,130
2018-01-10T12:32:45.943Z,130
2018-01-10T12:34:07.991Z,130
2018-01-10T12:35:29.633Z,130
2018-01-10T12:36:51.513Z,130
2018-01-10T12:38:13.652Z,135
2018-01-10T12:39:36.095Z,135
2018-01-10T12:40:58.114Z,135
2018-01-10T12:42:20.082Z,135
2018-01-10T12:43:41.980Z,135
2018-01-10T12:45:03.892Z,135
2018-01-10T12:46:25.870Z,135
2018-01-10T12:47:47.774Z,140
2018-01-10T12:49:09.741Z,135
2018-01-10T12:50:31.711Z,135
2018-01-10T12:51:53.632Z,130
2018-01-10T12:53:15.092Z,130
2018-01-10T12:54:36.679Z,135
2018-01-10T12:55:58.275Z,125
2018-01-10T12:57:20.422Z,120
2018-01-10T12:58:42.280Z,120
2018-01-10T13:00:03.923Z,115
2018-01-10T13:01:25.872Z,110
2018-01-10T13:02:47.958Z,110
2018-01-10T13:04:09.956Z,100
2018-01-10T13:05:31.881Z,95
2018-01-10T13:06:53.552Z,95
2018-01-10T13:08:15.778Z,90
2018-01-10T13:09:37.491Z,90
2018-01-10T13:10:59.772Z,90
2018-01-10T13:12:21.661Z,90
2018-01-10T13:13:43.042Z,90
2018-01-10T13:15:04.645Z,85
2018-01-10T13:16:26.531Z,85
2018-01-10T13:17:48.676Z,85
2018-01-10T13:19:10.573Z,80
2018-01-10T13:20:32.454Z,75
2018-01-10T13:21:54.355Z,75
2018-01-10T13:23:16.263Z,75
2018-01-10T13:24:38.217Z,75
2018-01-10T13:26:00.365Z,75
2018-01-10T13:27:22.218Z,70
2018-01-10T13:28:44.504Z,65
2018-01-10T13:30:06.665Z,60
2018-01-10T13:31:28.292Z,55
2018-01-10T13:32:49.676Z,55
2018-01-10T13:34:11.911Z,55
2018-01-10T13:35:33.787Z,55
2018-01-10T13:36:55.550Z,50
2018-01-10T13:38:17.756Z,50
2018-01-10T13:39:38.836Z,50
2018-01-10T13:41:00.482Z,45
2018-01-10T13:42:22.515Z,45
2018-01-10T13:43:44.909Z,45
2018-01-10T13:45:07.062Z,45
2018-01-10T13:46:28.511Z,45
2018-01-10T13:47:50.639Z,45
2018-01-10T13:49:12.809Z,50
2018-01-10T13:50:34.461Z,50
2018-01-10T13:51:56.128Z,50
2018-01-10T13:53:17.663Z,50
2018-01-10T13:54:39.940Z,55
2018-01-10T13:56:01.577Z,45
2018-01-10T13:57:23.911Z,45
2018-01-10T13:58:45.844Z,50
2018-01-10T14:00:08.074Z,50
2018-01-10T14:01:29.964Z,50
2018-01-10T14:02:51.855Z,55
2018-01-10T14:04:13.984Z,55
2018-01-10T14:05:35.882Z,55
2018-01-10T14:06:58.023Z,50
2018-01-10T14:08:19.903Z,50
2018-01-10T14:09:42.054Z,50
2018-01-10T14:11:04.168Z,50
2018-01-10T14:12:25.807Z,50
2018-01-10T14:13:47.726Z,50
2018-01-10T14:15:09.653Z,50
2018-01-10T14:16:31.296Z,50
2018-01-10T14:17:53.442Z,45
2018-01-10T14:19:15.570Z,45
2018-01-10T14:20:37.191Z,40
2018-01-10T14:21:59.152Z,40
2018-01-10T14:23:20.795Z,40
2018-01-10T14:24:42.685Z,40
2018-01-10T14:26:05.059Z,40
2018-01-10T14:27:27.223Z,35
2018-01-10T14:28:49.137Z,35
2018-01-10T14:30:11.103Z,35
2018-01-10T14:31:32.720Z,30
2018-01-10T14:32:54.627Z,30
2018-01-10T14:34:16.515Z,25
2018-01-10T14:35:38.223Z,25
2018-01-10T14:37:00.405Z,25
2018-01-10T14:38:22.273Z,20
2018-01-10T14:39:44.151Z,20
2018-01-10T14:41:06.363Z,20
2018-01-10T14:42:28.615Z,20
2018-01-10T14:43:50.507Z,15
2018-01-10T14:45:12.412Z,15
2018-01-10T14:46:34.357Z,15
2018-01-10T14:47:56.602Z,15
2018-01-10T14:49:18.292Z,15
2018-01-10T14:50:40.190Z,15
2018-01-10T14:52:02.470Z,15
2018-01-10T14:53:24.373Z,15
2018-01-10T14:54:46.023Z,15
2018-01-10T14:56:08.268Z,10
2018-01-10T14:57:30.403Z,10
2018-01-10T14:58:52.077Z,10
2018-01-10T15:00:13.954Z,10
2018-01-10T15:01:36.114Z,10
2018-01-10T15:02:58.008Z,10
2018-01-10T15:04:19.696Z,5
2018-01-10T15:05:41.682Z,5
2018-01-10T15:07:03.847Z,5
2018-01-10T15:08:26.023Z,5
2018-01-10T15:09:48.274Z,5
2018-01-10T15:11:09.948Z,5
2018-01-10T15:12:32.016Z,5
2018-01-10T15:13:53.978Z,5
2018-01-10T15:15:15.917Z,0
2018-01-10T15:16:38.045Z,0
2018-01-10T15:18:00.210Z,0
2018-01-10T15:19:22.397Z,0
2018-01-10T15:20:44.282Z,0
2018-01-10T15:22:06.200Z,0
2018-01-10T15:23:28.105Z,0
2018-01-10T15:24:50.272Z,0
2018-01-10T15:26:12.319Z,0
2018-01-10T15:27:34.481Z,0
2018-01-10T15:28:56.268Z,0
2018-01-10T15:30:18.423Z,0
2018-01-10T15:31:40.604Z,0
2018-01-10T15:33:02.781Z,0
2018-01-10T15:34:24.973Z,0
2018-01-10T15:35:47.023Z,0
2018-01-10T15:37:09.193Z,0
2018-01-10T15:38:31.344Z,0
2018-01-10T15:39:53.492Z,0
2018-01-10T15:41:15.714Z,0
2018-01-10T15:42:37.618Z,0
2018-01-10T15:43:59.858Z,0
2018-01-10T15:45:21.866Z,0
2018-01-10T15:46:44.008Z,0
2018-01-10T15:48:06.211Z,0
2018-01-10T15:49:28.503Z,0
2018-01-10T15:50:50.646Z,0
2018-01-10T15:52:12.819Z,0
2018-01-10T15:53:35.204Z,0
2018-01-10T15:54:57.351Z,0
2018-01-10T15:56:19.533Z,0
2018-01-10T15:57:41.678Z,0
2018-01-10T15:59:03.863Z,0
2018-01-10T16:00:25.514Z,0
2018-01-10T16:01:47.729Z,0
2018-01-10T16:03:09.910Z,0
2018-01-10T16:04:32.130Z,0
2018-01-10T16:05:54.110Z,0
2018-01-10T16:07:16.019Z,0
2018-01-10T16:08:38.290Z,0
2018-01-10T16:10:00.375Z,0
2018-01-10T16:11:22.540Z,0
2018-01-10T16:12:44.696Z,0
2018-01-10T16:14:07.004Z,0
2018-01-10T16:15:28.902Z,0
2018-01-10T16:16:50.776Z,0
2018-01-10T16:18:12.541Z,0
2018-01-10T16:19:34.792Z,0
2018-01-10T16:20:57.121Z,0
2018-01-10T16:22:19.287Z,0
2018-01-10T16:23:41.454Z,0
2018-01-10T16:25:03.704Z,0
2018-01-10T16:26:25.922Z,0
2018-01-10T16:27:47.952Z,0
2018-01-10T16:29:10.125Z,0
2018-01-10T16:30:32.587Z,0
2018-01-10T16:31:54.209Z,0
2018-01-10T16:33:16.210Z,0
2018-01-10T16:34:37.955Z,0
2018-01-10T16:35:59.599Z,0
2018-01-10T16:37:21.886Z,0
2018-01-10T16:38:44.142Z,0
2018-01-10T16:40:06.293Z,0
2018-01-10T16:41:28.721Z,0
2018-01-10T16:42:50.891Z,0
2018-01-10T16:44:12.774Z,0
2018-01-10T16:45:34.977Z,0
2018-01-10T16:46:57.214Z,0
2018-01-10T16:48:19.494Z,0
2018-01-10T16:49:41.694Z,0
2018-01-10T16:51:03.938Z,0
2018-01-10T16:52:26.233Z,0
2018-01-10T16:53:48.367Z,0
2018-01-10T16:55:10.544Z,0
2018-01-10T16:56:32.707Z,0
2018-01-10T16:57:54.949Z,0
2018-01-10T16:59:17.178Z,0
2018-01-10T17:00:39.372Z,0
2018-01-10T17:02:01.560Z,0
2018-01-10T17:03:23.597Z,0
2018-01-10T17:04:45.253Z,0
2018-01-10T17:06:07.404Z,0
2018-01-10T17:07:29.313Z,0
2018-01-10T17:08:51.477Z,0
2018-01-10T17:10:13.372Z,0
2018-01-10T17:11:35.547Z,0
2018-01-10T17:12:57.815Z,0
2018-01-10T17:14:19.749Z,0
2018-01-10T17:15:41.692Z,0
2018-01-10T17:17:03.307Z,0
2018-01-10T17:18:25.215Z,0
2018-01-10T17:19:47.199Z,0
2018-01-10T17:21:09.202Z,0
2018-01-10T17:22:31.254Z,0
2018-01-10T17:23:53.133Z,0
2018-01-10T17:25:15.284Z,0
2018-01-10T17:26:37.159Z,0
2018-01-10T17:27:59.050Z,0
2018-01-10T17:29:20.991Z,0
2018-01-10T17:30:43.223Z,0
2018-01-10T17:32:05.390Z,0
2018-01-10T17:33:27.309Z,0
2018-01-10T17:34:49.283Z,0
2018-01-10T17:36:10.938Z,0
2018-01-10T17:37:33.329Z,0
2018-01-10T17:38:55.480Z,0
2018-01-10T17:40:17.949Z,0
2018-01-10T17:41:40.122Z,0
2018-01-10T17:43:02.119Z,0
2018-01-10T17:44:24.407Z,0
2018-01-10T17:45:46.390Z,0
2018-01-10T17:47:08.262Z,0
2018-01-10T17:48:30.179Z,0
2018-01-10T17:49:52.227Z,0
2018-01-10T17:51:14.692Z,0
2018-01-10T17:52:36.841Z,0
2018-01-10T17:53:58.462Z,0
2018-01-10T17:55:20.574Z,0
2018-01-10T17:56:42.782Z,0
2018-01-10T17:58:04.149Z,0
2018-01-10T17:59:26.332Z,0
2018-01-10T18:00:48.235Z,0
2018-01-10T18:02:10.452Z,0
2018-01-10T18:03:32.659Z,0
2018-01-10T18:04:54.549Z,0
2018-01-10T18:06:16.757Z,0
2018-01-10T18:07:38.643Z,0
2018-01-10T18:09:00.650Z,0
2018-01-10T18:10:22.798Z,0
2018-01-10T18:11:45.113Z,0
2018-01-10T18:13:06.932Z,0
2018-01-10T18:14:29.287Z,0
2018-01-10T18:15:51.512Z,0
2018-01-10T18:17:13.392Z,0
2018-01-10T18:18:35.562Z,0
2018-01-10T18:19:57.724Z,0
2018-01-10T18:21:19.991Z,0
2018-01-10T18:22:41.932Z,0
2018-01-10T18:24:03.921Z,0
2018-01-10T18:25:26.181Z,0
2018-01-10T18:26:48.211Z,0
2018-01-10T18:28:10.475Z,0
2018-01-10T18:29:32.491Z,0
2018-01-10T18:30:54.091Z,0
2018-01-10T18:32:16.065Z,0
2018-01-10T18:33:38.048Z,0
2018-01-10T18:35:00.068Z,0
2018-01-10T18:36:22.262Z,0
2018-01-10T18:37:44.146Z,0
2018-01-10T18:39:06.203Z,0
2018-01-10T18:40:28.211Z,0
2018-01-10T18:41:50.465Z,0
2018-01-10T18:43:12.640Z,0
2018-01-10T18:44:34.560Z,0
2018-01-10T18:45:56.774Z,0
2018-01-10T18:47:18.934Z,0
2018-01-10T18:48:41.127Z,0
2018-01-10T18:50:02.882Z,0
2018-01-10T18:51:25.053Z,0
2018-01-10T18:52:47.313Z,0
2018-01-10T18:54:09.232Z,0
2018-01-10T18:55:31.437Z,0
2018-01-10T18:56:53.492Z,0
2018-01-10T18:58:15.404Z,0
2018-01-10T18:59:37.737Z,0
2018-01-10T19:00:59.985Z,0
2018-01-10T19:02:22.137Z,0
2018-01-10T19:03:44.057Z,0
2018-01-10T19:05:06.247Z,0
2018-01-10T19:06:28.406Z,0
2018-01-10T19:07:50.319Z,0
2018-01-10T19:09:12.244Z,0
2018-01-10T19:10:34.188Z,0
2018-01-10T19:11:55.860Z,0
2018-01-10T19:13:17.493Z,0
2018-01-10T19:14:39.967Z,0
2018-01-10T19:16:02.138Z,0
2018-01-10T19:17:24.385Z,0
2018-01-10T19:18:47.419Z,0
2018-01-10T19:20:09.195Z,0
2018-01-10T19:21:31.335Z,0
2018-01-10T19:22:53.462Z,0
2018-01-10T19:24:15.236Z,0
2018-01-10T19:25:37.444Z,0
2018-01-10T19:26:59.586Z,0
2018-01-10T19:28:21.934Z,0
2018-01-10T19:29:44.127Z,0
2018-01-10T19:31:07.834Z,0
2018-01-10T19:32:30.353Z,0
2018-01-10T19:33:53.149Z,0
2018-01-10T19:35:15.392Z,0
2018-01-10T19:36:37.675Z,0
2018-01-10T19:38:00.198Z,0
2018-01-10T19:39:22.262Z,0
2018-01-10T19:40:44.642Z,0
2018-01-10T19:42:07.089Z,0
2018-01-10T19:43:28.871Z,0
2018-01-10T19:44:51.069Z,0
2018-01-10T19:46:13.052Z,0
2018-01-10T19:47:35.435Z,0
2018-01-10T19:48:57.786Z,0